メインページ
METAR-TAF:

METAR-TAF

空港 :

プリンセス・ジュリアナ国際空港

シント・マールテン, オランダ領アンティル

緯度: 18-03N, 経度: 063-07W, 海抜: 4m

現時点の気象観測

当レポートは53分前の07:00(UTC)に作成
の風 12kt
気温 28°C
湿度 74%
気圧 1016 hPa
視程10km以上
高度2000ftの雲はほとんどない

METAR: TNCM 190700Z 09012KT 9999 FEW020 28/23 Q1016 A3001

時間: 03:53 (07:53 UTC)

予報

当レポートは2時間28分前の05:25(UTC)に作成
予報は19日の 06時(UTC)から 20日の 06時(UTC)まで有効
の風 14kt
視程: 10km
高度1900ftの雲はほとんどない
近辺でにわか雨
19日の 1300時(UTC)から
の風 15kt
視程: 10km
高度2000ftの雲は散在している
19日の 2300時(UTC)から
の風 10kt
視程: 10km
高度1800ftの雲はほとんどない

TAF: TNCM 190525Z 1906/2006 09014KT P6SM VCSH FEW019 FM191300 09015KT P6SM SCT020 FM192300 09010KT P6SM FEW018

4,000以上の空港の気象観測と天気予報(METAR報とTAF報)

利用可能な観測所は地図上に黄色い丸と赤い丸で示す。

丸の上にカーソルを重ねると観測所名を参照できる。

次にクリックすると気象観測と天気予報を参照できる。

マップの切り替え:黒色「×」印の緑ボタンをクリックして拡大、「-」印の緑ボタンをクリックして縮小、緑色の三角印をクリックして隣りの地図に切り替え


METAR-TAF: